.
WxDataArchive / Data Records for 2006-01-01
2005-12-31 January 2006 2006-01-02

Data Records for Sunday, 01 January 2006

Time	Temp	Chill	HIndex	Humid	Dewpt	 Wind 	HiWind	WindDir	Rain 	Barom 
-----	----	-----	------	-----	-----	------	------	-------	-----	----- 
00:00	34.1	34.1	34.1	85	30.1	2	6	248	0.00	29.889 
00:05	34.0	34.0	34.0	85	30.0	2	5	248	0.00	29.889 
00:10	34.0	34.0	34.0	85	30.0	1	4	248	0.00	29.889 
00:15	33.8	33.8	33.8	85	29.8	3	6	248	0.00	29.881 
00:20	33.7	33.7	33.7	85	29.7	3	7	248	0.00	29.881 
00:25	33.7	33.7	33.7	84	29.4	3	7	248	0.00	29.881 
00:30	33.5	33.5	33.5	84	29.2	2	5	248	0.00	29.887 
00:35	33.5	33.5	33.5	84	29.2	2	4	248	0.00	29.887 
00:40	33.5	33.5	33.5	84	29.2	2	6	248	0.00	29.887 
00:45	33.5	33.5	33.5	85	29.5	1	4	248	0.00	29.883 
00:50	33.4	33.4	33.4	85	29.4	1	4	248	0.00	29.883 
00:55	33.4	33.4	33.4	85	29.4	1	3	248	0.00	29.883 
01:00	33.5	33.5	33.5	86	29.8	1	3	248	0.00	29.885 
01:05	33.4	33.4	33.4	85	29.4	2	6	248	0.00	29.885 
01:10	33.5	33.5	33.5	85	29.5	2	5	248	0.00	29.885 
01:15	33.4	33.4	33.4	85	29.4	2	4	248	0.00	29.896 
01:20	33.4	33.4	33.4	84	29.1	3	7	248	0.00	29.896 
01:25	33.4	33.4	33.4	84	29.1	3	9	248	0.00	29.896 
01:30	33.2	33.2	33.2	84	28.9	2	9	248	0.00	29.898 
01:35	33.2	33.2	33.2	84	28.9	2	4	248	0.00	29.898 
01:40	33.2	33.2	33.2	84	28.9	2	5	248	0.00	29.898 
01:45	33.2	33.2	33.2	84	28.9	3	6	248	0.00	29.898 
01:50	33.2	33.2	33.2	84	28.9	2	4	248	0.00	29.898 
01:55	33.1	33.1	33.1	85	29.1	2	4	248	0.00	29.898 
02:00	33.1	33.1	33.1	85	29.1	2	4	248	0.00	29.907 
02:05	33.1	33.1	33.1	85	29.1	2	4	248	0.00	29.907 
02:10	33.1	33.1	33.1	85	29.1	1	3	248	0.00	29.907 
02:15	33.1	33.1	33.1	85	29.1	2	5	248	0.00	29.912 
02:20	33.1	33.1	33.1	85	29.1	1	4	248	0.00	29.912 
02:25	32.9	32.9	32.9	85	28.9	1	3	270	0.00	29.912 
02:30	32.9	32.9	32.9	85	28.9	2	6	248	0.00	29.920 
02:35	32.9	32.9	32.9	85	28.9	2	4	248	0.00	29.920 
02:40	32.9	32.9	32.9	85	28.9	2	6	248	0.00	29.920 
02:45	32.9	32.9	32.9	85	28.9	2	4	248	0.00	29.917 
02:50	32.9	32.9	32.9	85	28.9	2	4	248	0.00	29.917 
02:55	32.9	32.9	32.9	85	28.9	2	3	248	0.00	29.917 
03:00	32.9	32.9	32.9	85	28.9	1	3	248	0.00	29.919 
03:05	32.9	32.9	32.9	85	28.9	2	4	248	0.00	29.919 
03:10	32.9	32.9	32.9	84	28.6	2	4	248	0.00	29.919 
03:15	32.9	32.9	32.9	84	28.6	1	3	248	0.00	29.921 
03:20	32.9	32.9	32.9	84	28.6	1	3	248	0.00	29.921 
03:25	32.9	32.9	32.9	84	28.6	1	4	248	0.00	29.921 
03:30	32.8	32.8	32.8	84	28.5	1	3	248	0.00	29.929 
03:35	32.8	32.8	32.8	84	28.5	1	2	248	0.00	29.929 
03:40	32.8	32.8	32.8	85	28.8	1	3	248	0.00	29.929 
03:45	32.8	32.8	32.8	84	28.5	1	3	248	0.00	29.927 
03:50	32.8	32.8	32.8	85	28.8	0	1	248	0.00	29.927 
03:55	32.7	32.7	32.7	85	28.7	0	2	248	0.00	29.927 
04:00	32.7	32.7	32.7	85	28.7	1	2	225	0.00	29.934 
04:05	32.7	32.7	32.7	85	28.7	0	2	225	0.00	29.934 
04:10	32.5	32.5	32.5	85	28.5	1	3	248	0.00	29.934 
04:15	32.5	32.5	32.5	85	28.5	1	3	248	0.00	29.934 
04:20	32.5	32.5	32.5	85	28.5	0	2	248	0.00	29.934 
04:25	32.5	32.5	32.5	85	28.5	1	3	248	0.00	29.934 
04:30	32.5	32.5	32.5	84	28.2	1	3	248	0.00	29.934 
04:35	32.7	32.7	32.7	84	28.4	1	2	248	0.00	29.934 
04:40	32.7	32.7	32.7	84	28.4	1	3	248	0.00	29.934 
04:45	32.7	32.7	32.7	84	28.4	1	3	248	0.00	29.943 
04:50	32.8	32.8	32.8	84	28.5	1	4	248	0.00	29.943 
04:55	32.8	32.8	32.8	84	28.5	1	3	248	0.00	29.943 
05:00	32.8	32.8	32.8	84	28.5	1	3	248	0.00	29.947 
05:05	32.8	32.8	32.8	83	28.2	1	3	225	0.00	29.947 
05:10	32.9	32.9	32.9	83	28.3	1	2	248	0.00	29.947 
05:15	32.9	32.9	32.9	83	28.3	1	2	248	0.00	29.959 
05:20	32.9	32.9	32.9	83	28.3	1	2	248	0.00	29.959 
05:25	32.9	32.9	32.9	84	28.6	0	1	248	0.00	29.959 
05:30	32.9	32.9	32.9	84	28.6	0	2	248	0.00	29.956 
05:35	32.9	32.9	32.9	84	28.6	0	2	248	0.00	29.956 
05:40	32.9	32.9	32.9	84	28.6	1	2	248	0.00	29.956 
05:45	32.9	32.9	32.9	84	28.6	0	2	248	0.00	29.960 
05:50	32.8	32.8	32.8	84	28.5	1	2	248	0.00	29.960 
05:55	32.9	32.9	32.9	84	28.6	1	2	248	0.00	29.960 
06:00	32.8	32.8	32.8	84	28.5	0	1	248	0.00	29.959 
06:05	32.8	32.8	32.8	84	28.5	0	2	248	0.00	29.959 
06:10	32.7	32.7	32.7	84	28.4	0	1	248	0.00	29.959 
06:15	32.7	32.7	32.7	84	28.4	0	1	248	0.00	29.961 
06:20	32.5	32.5	32.5	84	28.2	0	0	---	0.00	29.961 
06:25	32.5	32.5	32.5	85	28.5	0	1	248	0.00	29.961 
06:30	32.4	32.4	32.4	85	28.4	0	1	248	0.00	29.962 
06:35	32.2	32.2	32.2	85	28.2	0	0	---	0.00	29.962 
06:40	32.1	32.1	32.1	85	28.1	0	0	---	0.00	29.962 
06:45	31.8	31.8	31.8	85	27.8	0	1	248	0.00	29.956 
06:50	31.6	31.6	31.6	86	27.9	0	1	248	0.00	29.956 
06:55	31.3	31.3	31.3	86	27.6	0	0	---	0.00	29.956 
07:00	31.2	31.2	31.2	87	27.8	0	1	248	0.00	29.959 
07:05	30.9	30.9	30.9	87	27.5	0	0	---	0.00	29.959 
07:10	30.7	30.7	30.7	88	27.6	0	0	---	0.00	29.959 
07:15	30.6	30.6	30.6	88	27.5	0	0	---	0.00	29.965 
07:20	30.3	30.3	30.3	88	27.2	0	0	---	0.00	29.965 
07:25	30.1	30.1	30.1	89	27.3	0	0	---	0.00	29.965 
07:30	30.0	30.0	30.0	89	27.2	0	1	248	0.00	29.968 
07:35	30.0	30.0	30.0	90	27.4	0	1	248	0.00	29.968 
07:40	30.0	30.0	30.0	90	27.4	0	0	---	0.00	29.968 
07:45	29.8	29.8	29.8	90	27.2	0	1	248	0.00	29.966 
07:50	30.0	30.0	30.0	90	27.4	0	2	248	0.00	29.966 
07:55	30.0	30.0	30.0	91	27.7	0	2	248	0.00	29.966 
08:00	30.1	30.1	30.1	90	27.5	0	1	248	0.00	29.964 
08:05	30.0	30.0	30.0	90	27.4	0	1	248	0.00	29.964 
08:10	30.0	30.0	30.0	90	27.4	0	0	---	0.00	29.964 
08:15	29.8	29.8	29.8	90	27.2	0	0	---	0.00	29.967 
08:20	29.8	29.8	29.8	90	27.2	0	0	---	0.00	29.967 
08:25	29.8	29.8	29.8	91	27.5	0	1	248	0.00	29.967 
08:30	29.8	29.8	29.8	91	27.5	0	1	248	0.00	29.972 
08:35	29.8	29.8	29.8	91	27.5	0	2	248	0.00	29.972 
08:40	30.0	30.0	30.0	91	27.7	0	1	248	0.00	29.972 
08:45	30.0	30.0	30.0	91	27.7	0	1	248	0.00	29.970 
08:50	30.1	30.1	30.1	91	27.8	1	2	248	0.00	29.970 
08:55	30.4	30.4	30.4	91	28.1	1	2	112	0.00	29.970 
09:00	30.6	30.6	30.6	91	28.3	0	1	112	0.00	29.977 
09:05	30.7	30.7	30.7	90	28.1	0	1	112	0.00	29.977 
09:10	31.0	31.0	31.0	90	28.4	1	2	112	0.00	29.977 
09:15	31.0	31.0	31.0	89	28.1	1	2	112	0.00	29.979 
09:20	31.3	31.3	31.3	89	28.4	0	2	112	0.00	29.979 
09:25	31.6	31.6	31.6	89	28.7	0	2	112	0.00	29.979 
09:30	32.1	32.1	32.1	88	29.0	1	3	112	0.00	29.977 
09:35	32.4	32.4	32.4	87	29.0	1	3	112	0.00	29.977 
09:40	32.8	32.8	32.8	87	29.4	1	3	112	0.00	29.977 
09:45	33.2	33.2	33.2	85	29.2	2	4	90	0.00	29.972 
09:50	33.5	33.5	33.5	84	29.2	2	5	112	0.00	29.972 
09:55	33.8	33.8	33.8	84	29.5	1	3	112	0.00	29.972 
10:00	34.1	34.1	34.1	84	29.8	1	2	90	0.00	29.983 
10:05	34.3	34.3	34.3	83	29.7	2	4	112	0.00	29.983 
10:10	34.6	34.6	34.6	83	30.0	1	3	112	0.00	29.983 
10:15	34.9	34.9	34.9	82	30.0	1	3	135	0.00	29.992 
10:20	35.2	35.2	35.2	82	30.3	2	5	112	0.00	29.992 
10:25	35.5	35.5	35.5	80	30.0	2	5	112	0.00	29.992 
10:30	35.9	35.9	35.9	80	30.3	3	5	90	0.00	30.004 
10:35	36.0	36.0	36.0	81	30.7	2	4	112	0.00	30.004 
10:40	36.2	36.2	36.2	80	30.6	2	5	90	0.00	30.004 
10:45	36.3	36.3	36.3	80	30.7	2	5	90	0.00	29.996 
10:50	36.2	36.2	36.2	81	30.9	2	6	90	0.00	29.996 
10:55	36.2	36.2	36.2	80	30.6	2	5	90	0.00	29.996 
11:00	36.3	36.3	36.3	81	31.0	2	5	112	0.00	29.994 
11:05	36.5	36.5	36.5	81	31.2	2	4	90	0.00	29.994 
11:10	36.6	36.6	36.6	81	31.3	3	6	112	0.00	29.994 
11:15	36.9	36.9	36.9	80	31.3	2	8	112	0.00	29.979 
11:20	37.2	37.2	37.2	80	31.6	3	7	90	0.00	29.979 
11:25	37.3	37.3	37.3	79	31.4	3	10	90	0.00	29.979 
11:30	37.6	37.6	37.6	79	31.7	2	5	90	0.00	29.980 
11:35	38.2	38.2	38.2	80	32.6	2	5	68	0.00	29.980 
11:40	38.6	38.6	38.6	78	32.3	2	5	90	0.00	29.980 
11:45	38.5	38.5	38.5	77	31.9	3	6	90	0.00	29.975 
11:50	38.3	38.3	38.3	77	31.7	2	5	90	0.00	29.975 
11:55	38.3	38.3	38.3	76	31.4	3	6	90	0.00	29.975 
12:00	38.5	38.5	38.5	77	31.9	2	6	112	0.00	29.974 
12:05	38.6	38.6	38.6	77	32.0	2	6	112	0.00	29.974 
12:10	38.6	38.6	38.6	77	32.0	2	5	90	0.00	29.974 
12:15	38.6	38.6	38.6	77	32.0	2	6	112	0.00	29.973 
12:20	38.5	38.5	38.5	77	31.9	2	7	112	0.00	29.973 
12:25	38.5	38.5	38.5	77	31.9	2	4	112	0.00	29.973 
12:30	38.5	38.5	38.5	76	31.6	2	4	112	0.00	29.958 
12:35	38.6	38.6	38.6	77	32.0	2	6	112	0.00	29.958 
12:40	38.6	38.6	38.6	77	32.0	2	6	90	0.00	29.958 
12:45	38.5	38.5	38.5	77	31.9	3	6	90	0.00	29.945 
12:50	38.6	38.6	38.6	78	32.3	2	5	112	0.00	29.945 
12:55	38.9	38.9	38.9	77	32.3	2	4	112	0.00	29.945 
13:00	38.9	38.9	38.9	77	32.3	2	4	90	0.00	29.942 
13:05	39.1	39.1	39.1	78	32.8	3	8	90	0.00	29.942 
13:10	39.2	39.2	39.2	78	32.9	2	4	112	0.00	29.942 
13:15	39.1	39.1	39.1	77	32.5	3	6	112	0.00	29.934 
13:20	39.1	39.1	39.1	77	32.5	3	11	90	0.00	29.934 
13:25	39.1	39.1	39.1	77	32.5	2	5	112	0.00	29.934 
13:30	39.2	39.2	39.2	77	32.6	2	7	90	0.00	29.925 
13:35	39.2	39.2	39.2	77	32.6	3	7	112	0.00	29.925 
13:40	39.2	39.2	39.2	77	32.6	3	6	112	0.00	29.925 
13:45	39.2	39.2	39.2	77	32.6	3	7	112	0.00	29.927 
13:50	39.2	39.2	39.2	77	32.6	3	5	112	0.00	29.927 
13:55	39.1	36.3	39.1	78	32.8	4	8	112	0.00	29.927 
14:00	39.1	36.3	39.1	78	32.8	4	8	112	0.00	29.926 
14:05	39.2	39.2	39.2	79	33.2	2	4	90	0.00	29.926 
14:10	39.3	39.3	39.3	78	33.0	3	9	112	0.00	29.926 
14:15	39.6	36.9	39.6	78	33.3	4	9	90	0.00	29.925 
14:20	40.1	36.6	40.1	77	33.5	5	8	90	0.00	29.925 
14:25	40.3	40.3	40.3	78	34.0	3	7	90	0.00	29.925 
14:30	40.3	36.8	40.3	77	33.7	5	12	90	0.00	29.922 
14:35	40.2	37.5	40.2	77	33.6	4	8	112	0.00	29.922 
14:40	40.2	40.2	40.2	77	33.6	3	7	112	0.00	29.922 
14:45	40.3	37.7	40.3	77	33.7	4	10	112	0.00	29.921 
14:50	40.5	40.5	40.5	78	34.2	3	8	112	0.00	29.921 
14:55	40.5	40.5	40.5	78	34.2	3	6	112	0.00	29.921 
15:00	40.6	40.6	40.6	78	34.3	3	6	112	0.00	29.922 
15:05	40.6	40.6	40.6	78	34.3	3	10	135	0.00	29.922 
15:10	40.8	40.8	40.8	77	34.2	3	11	90	0.00	29.922 
15:15	40.6	40.6	40.6	77	34.0	3	6	112	0.00	29.920 
15:20	40.8	38.2	40.8	77	34.2	4	7	112	0.00	29.920 
15:25	40.6	38.0	40.6	77	34.0	4	7	112	0.00	29.920 
15:30	40.6	40.6	40.6	78	34.3	3	9	112	0.00	29.915 
15:35	40.8	40.8	40.8	79	34.8	3	6	90	0.00	29.915 
15:40	40.8	38.2	40.8	78	34.5	4	9	112	0.00	29.915 
15:45	40.8	38.2	40.8	79	34.8	4	9	112	0.00	29.909 
15:50	40.8	38.2	40.8	78	34.5	4	12	112	0.00	29.909 
15:55	40.6	38.0	40.6	79	34.6	4	8	112	0.00	29.909 
16:00	40.6	37.2	40.6	80	34.9	5	11	90	0.00	29.906 
16:05	40.6	37.2	40.6	80	34.9	5	9	112	0.00	29.906 
16:10	40.6	37.2	40.6	80	34.9	5	10	112	0.00	29.906 
16:15	40.5	37.1	40.5	80	34.8	5	11	90	0.00	29.904 
16:20	40.5	37.9	40.5	80	34.8	4	9	112	0.00	29.904 
16:25	40.5	37.1	40.5	80	34.8	5	10	112	0.00	29.904 
16:30	40.5	37.9	40.5	81	35.1	4	10	112	0.00	29.907 
16:35	40.5	37.1	40.5	81	35.1	5	10	112	0.00	29.907 
16:40	40.5	37.1	40.5	81	35.1	5	9	90	0.00	29.907 
16:45	40.5	37.9	40.5	80	34.8	4	9	112	0.00	29.909 
16:50	40.5	37.9	40.5	81	35.1	4	9	112	0.00	29.909 
16:55	40.5	37.9	40.5	81	35.1	4	10	112	0.00	29.909 
17:00	40.3	37.7	40.3	81	34.9	4	12	90	0.00	29.895 
17:05	40.3	36.8	40.3	81	34.9	5	10	90	0.00	29.895 
17:10	40.3	37.7	40.3	81	34.9	4	9	90	0.00	29.895 
17:15	40.3	36.8	40.3	81	34.9	5	10	90	0.00	29.895 
17:20	40.3	37.7	40.3	81	34.9	4	9	90	0.00	29.895 
17:25	40.3	36.8	40.3	81	34.9	5	8	90	0.00	29.895 
17:30	40.3	36.8	40.3	81	34.9	5	10	90	0.00	29.885 
17:35	40.3	36.8	40.3	81	34.9	5	11	112	0.00	29.885 
17:40	40.3	37.7	40.3	81	34.9	4	8	90	0.00	29.885 
17:45	40.5	37.1	40.5	81	35.1	5	10	112	0.00	29.879 
17:50	40.5	37.9	40.5	81	35.1	4	11	112	0.00	29.879 
17:55	40.5	37.9	40.5	81	35.1	4	7	112	0.00	29.879 
18:00	40.5	37.1	40.5	81	35.1	5	12	90	0.00	29.877 
18:05	40.5	37.1	40.5	81	35.1	5	11	90	0.00	29.877 
18:10	40.6	37.2	40.6	81	35.2	5	9	90	0.00	29.877 
18:15	40.6	37.2	40.6	81	35.2	5	9	90	0.00	29.880 
18:20	40.6	38.0	40.6	81	35.2	4	8	90	0.00	29.880 
18:25	40.6	37.2	40.6	81	35.2	5	9	112	0.00	29.880 
18:30	40.6	38.0	40.6	81	35.2	4	9	112	0.00	29.870 
18:35	40.6	37.2	40.6	81	35.2	5	10	112	0.00	29.870 
18:40	40.8	37.4	40.8	81	35.4	5	9	112	0.00	29.870 
18:45	40.8	37.4	40.8	81	35.4	5	11	112	0.00	29.866 
18:50	40.8	37.4	40.8	81	35.4	5	9	112	0.00	29.866 
18:55	40.8	37.4	40.8	81	35.4	5	7	90	0.00	29.866 
19:00	40.8	38.2	40.8	81	35.4	4	7	112	0.00	29.864 
19:05	40.8	37.4	40.8	82	35.7	5	10	90	0.00	29.864 
19:10	40.6	38.0	40.6	83	35.8	4	9	90	0.00	29.864 
19:15	40.6	38.0	40.6	84	36.2	4	8	112	0.00	29.870 
19:20	40.6	40.6	40.6	84	36.2	3	9	90	0.00	29.870 
19:25	40.8	38.2	40.8	84	36.3	4	7	112	0.00	29.870 
19:30	40.8	38.2	40.8	83	36.0	4	7	90	0.00	29.867 
19:35	40.8	38.2	40.8	83	36.0	4	7	90	0.00	29.867 
19:40	40.9	38.4	40.9	83	36.1	4	7	90	0.00	29.867 
19:45	40.9	38.4	40.9	83	36.1	4	11	112	0.00	29.868 
19:50	40.9	40.9	40.9	84	36.4	3	6	90	0.00	29.868 
19:55	40.9	37.5	40.9	84	36.4	5	10	90	0.00	29.868 
20:00	40.8	40.8	40.8	84	36.3	3	7	112	0.00	29.864 
20:05	40.8	38.2	40.8	84	36.3	4	7	112	0.00	29.864 
20:10	40.9	38.4	40.9	84	36.4	4	7	90	0.00	29.864 
20:15	40.9	38.4	40.9	84	36.4	4	10	112	0.00	29.862 
20:20	40.9	38.4	40.9	84	36.4	4	7	112	0.00	29.862 
20:25	41.1	38.6	41.1	84	36.6	4	7	112	0.00	29.862 
20:30	41.1	38.6	41.1	84	36.6	4	6	112	0.00	29.858 
20:35	41.1	41.1	41.1	84	36.6	3	8	112	0.00	29.858 
20:40	41.1	41.1	41.1	84	36.6	3	10	112	0.00	29.858 
20:45	41.1	41.1	41.1	84	36.6	3	6	112	0.00	29.849 
20:50	41.1	38.6	41.1	84	36.6	4	7	112	0.00	29.849 
20:55	40.9	38.4	40.9	84	36.4	4	7	90	0.00	29.849 
21:00	40.9	38.4	40.9	84	36.4	4	9	112	0.00	29.847 
21:05	40.9	38.4	40.9	84	36.4	4	7	90	0.00	29.847 
21:10	40.8	38.2	40.8	84	36.3	4	9	90	0.00	29.847 
21:15	40.8	38.2	40.8	84	36.3	4	10	90	0.00	29.833 
21:20	40.8	40.8	40.8	84	36.3	3	6	90	0.00	29.833 
21:25	40.8	38.2	40.8	84	36.3	4	6	90	0.00	29.833 
21:30	40.8	38.2	40.8	83	36.0	4	6	112	0.00	29.844 
21:35	40.8	40.8	40.8	84	36.3	3	7	90	0.00	29.844 
21:40	40.8	40.8	40.8	84	36.3	3	6	90	0.00	29.844 
21:45	40.8	38.2	40.8	84	36.3	4	7	90	0.00	29.840 
21:50	40.8	38.2	40.8	83	36.0	4	10	90	0.00	29.840 
21:55	40.9	38.4	40.9	83	36.1	4	8	112	0.00	29.840 
22:00	40.9	38.4	40.9	82	35.8	4	8	112	0.00	29.842 
22:05	41.1	41.1	41.1	82	36.0	3	5	112	0.00	29.842 
22:10	41.1	38.6	41.1	82	36.0	4	7	90	0.00	29.842 
22:15	41.1	41.1	41.1	82	36.0	3	7	90	0.00	29.832 
22:20	41.1	38.6	41.1	82	36.0	4	7	90	0.00	29.832 
22:25	41.1	38.6	41.1	82	36.0	4	10	112	0.00	29.832 
22:30	41.1	37.8	41.1	82	36.0	5	9	90	0.00	29.828 
22:35	41.2	38.7	41.2	81	35.8	4	7	112	0.00	29.828 
22:40	41.2	41.2	41.2	81	35.8	3	8	112	0.00	29.828 
22:45	41.2	38.7	41.2	81	35.8	4	8	90	0.00	29.828 
22:50	41.2	41.2	41.2	82	36.1	3	6	90	0.00	29.828 
22:55	41.2	41.2	41.2	82	36.1	3	7	90	0.00	29.828 
23:00	41.2	38.7	41.2	82	36.1	4	9	90	0.00	29.828 
23:05	41.1	38.6	41.1	82	36.0	4	10	90	0.00	29.828 
23:10	41.1	38.6	41.1	82	36.0	4	10	90	0.00	29.828 
23:15	41.1	37.1	41.1	82	36.0	6	12	90	0.00	29.803 
23:20	40.9	37.5	40.9	82	35.8	5	9	90	0.00	29.803 
23:25	41.1	38.6	41.1	82	36.0	4	7	112	0.00	29.803 
23:30	41.1	41.1	41.1	82	36.0	3	10	90	0.00	29.810 
23:35	41.2	41.2	41.2	81	35.8	3	7	90	0.00	29.810 
23:40	41.2	38.7	41.2	81	35.8	4	8	90	0.00	29.810 
23:45	41.2	38.7	41.2	81	35.8	4	7	90	0.00	29.815 
23:50	41.2	41.2	41.2	81	35.8	3	6	90	0.00	29.815 
23:55	41.2	41.2	41.2	81	35.8	2	6	90	0.00	29.815 

CoCoRaHS
IN-AL-39
A2 Web Hosting
Creative Commons License
GoDaddy
Look for:

loaded 2017-10-17 09:30:34 • last modified 2010-11-18 10:43:29
Privacy PolicyDisclaimer
• wx.awcolley.com is powered by PmWiki v.2002016 •
• all content (unless otherwise noted) © 2017 A W Colley